Time;durP1;ratioP1;P1;durP2;ratioP2;P2;SDS_P1;SDS_P2;PMS_P1;PMS_P2;Temp;Humidity;BMP_temperature;BMP_pressure;BME280_temperature;BME280_humidity;BME280_pressure;Samples;Min_cycle;Max_cycle;Signal;HPM_P1;HPM_P2
2023/06/11 03:03:29;;;;;;;9.18;3.13;;;16.20;99.90;;;;;;5105074;27;20516;-66
2023/06/11 03:05:57;;;;;;;8.88;2.95;;;16.30;99.90;;;;;;5105103;28;20054;-65
2023/06/11 03:08:24;;;;;;;8.10;3.22;;;16.30;99.90;;;;;;5100769;28;20089;-64
2023/06/11 03:10:52;;;;;;;8.57;3.83;;;16.40;99.90;;;;;;5103004;28;20115;-66
2023/06/11 03:13:20;;;;;;;10.93;3.67;;;16.40;99.90;;;;;;5103968;28;20032;-67
2023/06/11 03:15:47;;;;;;;8.93;3.38;;;16.50;99.90;;;;;;5103027;28;20111;-67
2023/06/11 03:18:15;;;;;;;9.82;2.60;;;16.60;99.90;;;;;;5103372;28;20052;-67
2023/06/11 03:20:43;;;;;;;7.30;2.75;;;16.70;99.50;;;;;;5100080;28;20027;-67
2023/06/11 03:23:10;;;;;;;11.82;3.33;;;16.70;99.90;;;;;;5103850;28;20098;-67
2023/06/11 03:25:38;;;;;;;12.43;2.88;;;16.80;97.80;;;;;;5103788;28;20221;-66
2023/06/11 03:28:05;;;;;;;11.93;4.00;;;16.80;98.30;;;;;;5103488;28;20518;-67
2023/06/11 03:30:33;;;;;;;3.88;1.52;;;16.80;98.50;;;;;;5100818;28;20032;-66
2023/06/11 03:33:00;;;;;;;5.70;1.92;;;16.90;97.50;;;;;;5103163;28;20375;-67
2023/06/11 03:35:28;;;;;;;9.48;2.35;;;17.00;95.60;;;;;;5102909;28;20461;-67
2023/06/11 03:37:55;;;;;;;5.05;2.78;;;17.00;95.20;;;;;;5104291;28;20016;-66
2023/06/11 03:40:23;;;;;;;4.80;1.77;;;17.10;95.90;;;;;;5100705;28;20106;-66
2023/06/11 03:42:50;;;;;;;7.38;2.40;;;17.00;95.80;;;;;;5103083;28;20093;-67
2023/06/11 03:45:18;;;;;;;7.25;2.53;;;17.10;96.60;;;;;;5102770;28;20027;-67
2023/06/11 03:47:45;;;;;;;6.03;1.90;;;17.10;96.00;;;;;;5104091;28;20449;-68
2023/06/11 03:50:13;;;;;;;15.38;4.10;;;17.20;95.60;;;;;;5101327;28;20024;-67
2023/06/11 03:52:40;;;;;;;9.50;3.35;;;17.20;94.80;;;;;;5102529;28;20020;-66
2023/06/11 03:55:08;;;;;;;11.80;2.90;;;17.30;95.30;;;;;;5104803;28;20031;-66
2023/06/11 03:57:35;;;;;;;5.85;2.58;;;17.20;95.20;;;;;;5102472;28;20384;-67
2023/06/11 04:00:04;;;;;;;5.95;2.10;;;17.30;94.60;;;;;;5102758;28;20045;-69
2023/06/11 04:02:31;;;;;;;5.32;2.17;;;17.30;95.00;;;;;;5104652;28;20122;-65
2023/06/11 04:04:59;;;;;;;5.80;2.25;;;17.30;94.70;;;;;;5103421;28;20051;-65
2023/06/11 04:07:27;;;;;;;6.07;1.95;;;17.30;94.60;;;;;;5103033;28;20032;-64
2023/06/11 04:09:55;;;;;;;6.53;2.35;;;17.30;94.20;;;;;;5099963;28;20085;-67
2023/06/11 04:12:22;;;;;;;8.27;2.63;;;17.20;94.60;;;;;;5099289;28;20024;-66
2023/06/11 04:14:50;;;;;;;4.85;2.03;;;17.30;94.80;;;;;;5087731;28;20020;-66
2023/06/11 04:17:17;;;;;;;10.10;3.58;;;17.30;94.10;;;;;;5090103;28;20083;-66
2023/06/11 04:19:45;;;;;;;9.15;2.75;;;17.30;92.60;;;;;;5090875;28;20181;-66
2023/06/11 04:22:12;;;;;;;5.10;1.77;;;17.30;92.70;;;;;;5088454;28;20127;-66
2023/06/11 04:24:40;;;;;;;4.47;1.55;;;17.30;92.50;;;;;;5088592;28;20031;-67
2023/06/11 04:27:07;;;;;;;5.38;1.70;;;17.30;92.30;;;;;;5090190;28;20053;-66
2023/06/11 04:29:36;;;;;;;6.35;1.92;;;17.20;92.50;;;;;;5087335;28;20736;-68
2023/06/11 04:32:04;;;;;;;7.22;2.47;;;17.20;92.50;;;;;;5088978;28;20456;-68
2023/06/11 04:34:33;;;;;;;10.60;2.97;;;17.20;92.80;;;;;;5092265;28;20099;-67
2023/06/11 04:37:01;;;;;;;7.10;2.30;;;17.10;91.80;;;;;;5090378;28;20028;-68
2023/06/11 04:39:28;;;;;;;9.07;2.63;;;17.10;91.70;;;;;;5092446;28;20020;-68
2023/06/11 04:41:58;;;;;;;5.78;1.88;;;17.10;92.70;;;;;;5092278;28;20445;-67
2023/06/11 04:44:26;;;;;;;8.43;2.00;;;17.00;92.90;;;;;;5091184;28;20059;-67
2023/06/11 04:46:57;;;;;;;5.05;1.30;;;17.00;93.00;;;;;;5091218;28;20449;-67
2023/06/11 04:49:24;;;;;;;3.13;1.63;;;17.00;92.60;;;;;;5082418;28;20024;-67
2023/06/11 04:51:57;;;;;;;7.22;2.55;;;17.00;92.60;;;;;;5085856;28;20028;-67
2023/06/11 04:54:27;;;;;;;7.05;2.15;;;17.00;93.60;;;;;;5087665;28;20019;-68
2023/06/11 04:56:54;;;;;;;6.38;2.20;;;17.00;93.40;;;;;;5090760;28;20024;-66
2023/06/11 04:59:22;;;;;;;4.18;1.30;;;17.00;92.50;;;;;;5087906;28;20154;-67
2023/06/11 05:01:53;;;;;;;5.30;1.90;;;17.00;93.40;;;;;;5090764;28;20586;-68
2023/06/11 05:04:21;;;;;;;6.43;1.70;;;16.90;93.40;;;;;;5089418;28;20070;-67
2023/06/11 05:06:49;;;;;;;3.35;1.40;;;16.90;92.50;;;;;;5087001;28;20024;-67
2023/06/11 05:09:16;;;;;;;7.72;1.48;;;16.80;93.90;;;;;;5090663;28;20024;-68
2023/06/11 05:11:45;;;;;;;4.50;1.27;;;16.80;94.00;;;;;;5089350;28;20031;-68
2023/06/11 05:14:13;;;;;;;6.43;2.00;;;16.80;94.00;;;;;;5087549;28;20052;-68
2023/06/11 05:16:40;;;;;;;5.03;1.42;;;16.70;94.60;;;;;;5087414;28;20024;-72
2023/06/11 05:19:08;;;;;;;4.28;1.23;;;16.70;95.00;;;;;;5091481;28;20031;-67
2023/06/11 05:21:36;;;;;;;5.03;1.35;;;16.60;93.10;;;;;;5089910;28;20192;-63
2023/06/11 05:24:07;;;;;;;7.03;1.73;;;16.70;93.60;;;;;;5089037;28;20476;-63
2023/06/11 05:26:38;;;;;;;6.30;1.67;;;16.70;93.40;;;;;;5089928;28;20024;-62
2023/06/11 05:29:06;;;;;;;3.85;1.08;;;16.70;93.50;;;;;;5091112;28;20028;-63
2023/06/11 05:31:35;;;;;;;6.20;1.35;;;16.60;93.50;;;;;;5089741;28;20366;-63
2023/06/11 05:34:03;;;;;;;4.60;0.93;;;16.60;93.90;;;;;;5089886;28;20030;-63
2023/06/11 05:36:31;;;;;;;4.18;1.58;;;16.50;94.40;;;;;;5090973;28;20032;-64
2023/06/11 05:38:58;;;;;;;4.10;1.08;;;16.40;94.30;;;;;;5088912;28;20549;-63
2023/06/11 05:41:26;;;;;;;3.22;0.90;;;16.40;94.20;;;;;;5085488;28;20043;-63
2023/06/11 05:43:53;;;;;;;2.92;1.27;;;16.40;93.80;;;;;;5087551;28;20036;-63
2023/06/11 05:46:23;;;;;;;4.13;1.10;;;16.50;94.70;;;;;;5081807;28;20657;-63
2023/06/11 05:48:51;;;;;;;5.80;1.42;;;16.40;94.90;;;;;;5083874;28;20300;-62
2023/06/11 05:51:18;;;;;;;2.72;0.93;;;16.30;95.00;;;;;;5085101;28;20073;-63
2023/06/11 05:53:46;;;;;;;3.22;0.80;;;16.30;95.90;;;;;;5085280;28;20058;-63
2023/06/11 05:56:13;;;;;;;4.35;1.15;;;16.10;96.90;;;;;;5078960;28;20541;-63
2023/06/11 05:58:41;;;;;;;4.15;1.40;;;16.00;97.30;;;;;;5088287;28;20182;-63
2023/06/11 06:01:09;;;;;;;4.68;1.23;;;15.90;98.40;;;;;;5087412;28;20024;-63
2023/06/11 06:03:36;;;;;;;5.45;1.25;;;15.80;98.30;;;;;;5089442;28;20054;-62
2023/06/11 06:06:04;;;;;;;7.32;1.27;;;15.70;99.10;;;;;;5089203;28;20027;-62
2023/06/11 06:08:32;;;;;;;7.97;1.20;;;15.60;99.90;;;;;;5087624;28;20024;-64
2023/06/11 06:10:59;;;;;;;7.53;1.83;;;15.50;99.90;;;;;;5087716;28;20388;-64
2023/06/11 06:13:27;;;;;;;8.10;1.55;;;15.40;99.90;;;;;;5088785;28;20035;-64
2023/06/11 06:15:55;;;;;;;7.18;1.60;;;15.30;99.90;;;;;;5088939;28;20099;-62
2023/06/11 06:18:22;;;;;;;7.80;1.63;;;15.20;99.90;;;;;;5089838;28;20484;-63
2023/06/11 06:20:50;;;;;;;9.13;1.20;;;15.10;99.90;;;;;;5089071;28;20473;-63
2023/06/11 06:23:17;;;;;;;5.97;1.30;;;15.00;99.90;;;;;;5089183;28;20552;-70
2023/06/11 06:25:45;;;;;;;3.67;0.82;;;14.80;99.90;;;;;;5089919;28;20038;-68
2023/06/11 06:28:12;;;;;;;5.03;1.10;;;14.70;99.90;;;;;;5088700;28;20028;-67
2023/06/11 06:30:40;;;;;;;5.43;1.60;;;14.50;99.90;;;;;;5087520;28;20016;-64
2023/06/11 06:33:07;;;;;;;5.47;1.77;;;14.40;99.90;;;;;;5087709;28;20506;-64
2023/06/11 06:35:34;;;;;;;3.85;1.88;;;14.20;99.90;;;;;;5088062;28;20055;-65
2023/06/11 06:38:02;;;;;;;7.47;2.45;;;14.00;99.90;;;;;;5086976;28;20016;-63
2023/06/11 06:40:30;;;;;;;7.47;2.65;;;13.80;99.90;;;;;;5086855;28;20032;-68
2023/06/11 06:42:57;;;;;;;6.05;2.22;;;13.70;99.90;;;;;;5087980;28;20038;-70
2023/06/11 06:45:24;;;;;;;4.78;2.10;;;13.50;99.90;;;;;;5088382;28;20463;-66
2023/06/11 06:47:52;;;;;;;5.45;1.73;;;13.40;99.90;;;;;;5087878;28;20043;-65
2023/06/11 06:50:20;;;;;;;9.00;1.60;;;13.20;99.90;;;;;;5089771;28;20016;-66
2023/06/11 06:52:48;;;;;;;2.08;1.27;;;13.00;99.90;;;;;;5089225;28;20085;-65
2023/06/11 06:55:15;;;;;;;5.95;2.75;;;12.80;99.90;;;;;;5089950;28;20051;-65
2023/06/11 06:57:42;;;;;;;12.93;4.70;;;12.60;99.90;;;;;;5088797;28;20058;-65
2023/06/11 07:00:10;;;;;;;7.78;3.10;;;12.40;99.90;;;;;;5089775;28;20031;-64
2023/06/11 07:02:38;;;;;;;9.45;2.80;;;12.30;99.90;;;;;;5089342;28;20578;-64
2023/06/11 07:05:06;;;;;;;5.68;3.42;;;12.20;99.90;;;;;;5089489;28;20354;-65
2023/06/11 07:07:33;;;;;;;5.78;1.60;;;12.10;99.90;;;;;;5089034;28;20024;-66
2023/06/11 07:10:00;;;;;;;4.75;1.85;;;12.40;99.90;;;;;;5090203;28;20141;-65
2023/06/11 07:12:28;;;;;;;3.08;1.77;;;12.40;99.90;;;;;;5088949;28;20034;-65
2023/06/11 07:14:55;;;;;;;4.95;2.05;;;12.20;99.90;;;;;;5089460;28;20103;-65
2023/06/11 07:17:25;;;;;;;7.40;1.77;;;12.20;99.90;;;;;;5088331;28;20028;-65
2023/06/11 07:19:53;;;;;;;7.30;1.63;;;12.50;99.90;;;;;;5089306;28;20040;-65
2023/06/11 07:22:20;;;;;;;4.82;2.35;;;12.50;99.90;;;;;;5088882;28;20040;-65
2023/06/11 07:24:48;;;;;;;5.40;2.65;;;12.60;99.90;;;;;;5089243;28;20031;-66
2023/06/11 07:27:16;;;;;;;8.00;2.22;;;12.50;99.90;;;;;;5086908;28;20028;-65
2023/06/11 07:29:43;;;;;;;8.38;2.13;;;12.50;99.90;;;;;;5085821;28;20032;-65
2023/06/11 07:32:11;;;;;;;10.77;2.70;;;12.60;99.90;;;;;;5087856;28;20028;-65
2023/06/11 07:34:39;;;;;;;6.68;2.13;;;12.50;99.90;;;;;;5089290;28;20305;-65
2023/06/11 07:37:06;;;;;;;6.95;2.20;;;12.50;99.90;;;;;;5089118;28;20028;-65
2023/06/11 07:39:34;;;;;;;10.38;3.83;;;12.40;99.90;;;;;;5088782;28;20365;-65
2023/06/11 07:42:04;;;;;;;7.45;2.25;;;12.30;99.90;;;;;;5089409;28;20067;-66
2023/06/11 07:44:32;;;;;;;5.90;1.73;;;12.30;99.90;;;;;;5087866;28;20012;-66
2023/06/11 07:47:00;;;;;;;9.45;3.70;;;12.20;99.90;;;;;;5088973;28;20472;-67
2023/06/11 07:49:27;;;;;;;7.88;3.33;;;12.20;99.90;;;;;;5091624;28;20566;-67
2023/06/11 07:51:55;;;;;;;9.65;3.03;;;12.10;99.90;;;;;;5093115;28;20024;-67
2023/06/11 07:54:22;;;;;;;9.95;4.03;;;11.90;99.90;;;;;;5092459;28;20373;-67
2023/06/11 07:56:50;;;;;;;11.35;3.17;;;11.80;99.90;;;;;;5088808;28;20020;-66
2023/06/11 07:59:17;;;;;;;6.32;2.22;;;11.80;99.90;;;;;;5092716;28;20028;-66
2023/06/11 08:01:45;;;;;;;7.35;2.95;;;12.00;99.90;;;;;;5090741;28;20097;-66
2023/06/11 08:04:12;;;;;;;6.55;2.50;;;12.10;99.90;;;;;;5092725;28;20032;-66
2023/06/11 08:06:40;;;;;;;7.75;2.38;;;12.00;99.90;;;;;;5092505;28;20016;-66
2023/06/11 08:09:08;;;;;;;7.00;3.33;;;11.90;99.90;;;;;;5091688;28;20471;-66
2023/06/11 08:11:37;;;;;;;7.35;3.05;;;12.00;99.90;;;;;;5087895;28;20361;-66
2023/06/11 08:14:04;;;;;;;9.63;2.97;;;11.90;99.90;;;;;;5089931;28;20051;-66
2023/06/11 08:16:32;;;;;;;7.63;2.90;;;12.00;99.90;;;;;;5090452;28;20115;-66
2023/06/11 08:19:00;;;;;;;8.10;2.67;;;12.00;99.90;;;;;;5088860;28;20158;-66
2023/06/11 08:21:27;;;;;;;7.75;2.33;;;12.10;99.90;;;;;;5090083;28;20055;-66
2023/06/11 08:23:55;;;;;;;8.95;2.85;;;12.00;99.90;;;;;;5089764;28;20028;-66
2023/06/11 08:26:22;;;;;;;9.65;2.53;;;12.00;99.90;;;;;;5087978;28;20089;-66
2023/06/11 08:28:50;;;;;;;5.88;2.95;;;11.90;99.90;;;;;;5090045;28;20028;-68
2023/06/11 08:31:18;;;;;;;7.22;2.65;;;11.80;99.90;;;;;;5089612;28;20453;-68
2023/06/11 08:33:48;;;;;;;8.93;2.22;;;11.70;99.90;;;;;;5089948;28;20063;-67
2023/06/11 08:36:16;;;;;;;8.38;2.63;;;11.50;99.90;;;;;;5089112;28;20032;-66
2023/06/11 08:38:44;;;;;;;10.68;2.85;;;11.30;99.90;;;;;;5086016;28;20411;-65
2023/06/11 08:41:12;;;;;;;8.63;2.70;;;11.20;99.90;;;;;;5089482;28;20016;-66
2023/06/11 08:43:39;;;;;;;10.43;2.92;;;11.10;99.90;;;;;;5089113;28;20081;-66
2023/06/11 08:46:13;;;;;;;7.95;2.63;;;11.20;99.90;;;;;;5089142;28;20396;-67
2023/06/11 08:48:43;;;;;;;6.85;2.70;;;11.40;99.90;;;;;;5088416;28;20054;-66
2023/06/11 08:51:12;;;;;;;5.90;2.70;;;11.60;99.90;;;;;;5088059;28;20460;-67
2023/06/11 08:53:40;;;;;;;9.30;2.78;;;11.70;99.90;;;;;;5087844;28;20826;-66
2023/06/11 08:56:08;;;;;;;9.02;3.40;;;11.70;99.90;;;;;;5087466;28;20028;-68
2023/06/11 08:58:37;;;;;;;8.27;3.33;;;11.70;99.90;;;;;;5088711;28;20107;-65
2023/06/11 09:01:12;;;;;;;8.05;2.85;;;11.70;99.90;;;;;;5087946;28;20527;-63
2023/06/11 09:03:39;;;;;;;15.15;3.28;;;11.70;99.90;;;;;;5087702;28;20036;-68
2023/06/11 09:06:07;;;;;;;7.53;3.13;;;11.70;99.90;;;;;;5089332;28;20055;-69
2023/06/11 09:08:35;;;;;;;11.05;2.92;;;11.70;99.90;;;;;;5088801;28;20059;-68
2023/06/11 09:11:05;;;;;;;8.70;2.72;;;11.80;99.90;;;;;;5088453;28;20020;-71
2023/06/11 09:13:32;;;;;;;8.88;2.67;;;11.70;99.90;;;;;;5089327;28;20031;-71
2023/06/11 09:16:00;;;;;;;7.20;3.03;;;11.70;99.90;;;;;;5089724;28;20480;-68
2023/06/11 09:18:28;;;;;;;5.00;2.70;;;11.70;99.90;;;;;;5086573;28;20157;-66
2023/06/11 09:21:00;;;;;;;10.43;3.13;;;11.70;99.90;;;;;;5088802;28;20101;-72
2023/06/11 09:23:38;;;;;;;9.55;2.55;;;11.70;99.90;;;;;;5088214;28;20043;-70
2023/06/11 09:26:05;;;;;;;8.35;2.65;;;11.70;99.90;;;;;;5088559;28;20020;-64
2023/06/11 09:28:35;;;;;;;7.50;2.50;;;11.70;99.90;;;;;;5088168;28;20024;-67
2023/06/11 09:31:04;;;;;;;9.15;2.83;;;11.70;99.90;;;;;;5088733;28;20020;-65
2023/06/11 09:33:32;;;;;;;9.05;4.13;;;11.60;99.90;;;;;;5086880;28;20088;-70
2023/06/11 09:36:00;;;;;;;5.80;2.25;;;11.40;99.90;;;;;;5075735;28;20025;-66
2023/06/11 09:38:28;;;;;;;6.82;2.78;;;11.10;99.90;;;;;;5067909;28;20104;-66
2023/06/11 09:40:57;;;;;;;8.60;2.35;;;10.70;99.90;;;;;;5068009;28;20035;-66
2023/06/11 09:43:25;;;;;;;6.80;2.53;;;10.40;99.90;;;;;;5084251;28;20038;-66
2023/06/11 09:45:54;;;;;;;7.50;2.42;;;10.10;99.90;;;;;;5084436;28;20556;-65
2023/06/11 09:48:23;;;;;;;7.63;3.60;;;9.90;99.90;;;;;;5085417;28;20039;-65
2023/06/11 09:50:52;;;;;;;14.13;5.95;;;9.60;99.90;;;;;;5083320;28;20024;-66
2023/06/11 09:53:22;;;;;;;11.27;6.53;;;9.40;99.90;;;;;;5083367;28;20032;-67
2023/06/11 09:55:51;;;;;;;16.67;6.68;;;9.30;99.90;;;;;;5084958;28;20051;-66
2023/06/11 09:58:22;;;;;;;15.75;7.22;;;9.10;99.90;;;;;;5084178;28;20016;-65
2023/06/11 10:01:00;;;;;;;16.67;7.22;;;9.00;99.90;;;;;;5080297;28;20089;-66
2023/06/11 10:03:30;;;;;;;14.40;6.78;;;9.00;99.90;;;;;;5084972;28;20701;-66
2023/06/11 10:05:58;;;;;;;23.58;9.15;;;8.90;99.90;;;;;;5080947;28;20070;-67
2023/06/11 10:08:33;;;;;;;11.90;5.82;;;8.80;99.90;;;;;;5081180;28;20032;-67
2023/06/11 10:11:04;;;;;;;17.08;6.13;;;8.70;99.90;;;;;;5078796;28;20028;-66
2023/06/11 10:13:37;;;;;;;13.70;6.40;;;8.60;99.90;;;;;;5081081;28;20036;-67
2023/06/11 10:16:08;;;;;;;17.88;7.18;;;8.50;99.90;;;;;;5081920;28;20056;-68
2023/06/11 10:18:36;;;;;;;13.60;5.78;;;8.60;99.90;;;;;;5078689;28;20056;-67
2023/06/11 10:21:04;;;;;;;12.30;6.25;;;8.60;99.90;;;;;;5072087;28;20124;-65
2023/06/11 10:23:40;;;;;;;21.67;7.50;;;8.60;99.90;;;;;;5075364;28;20091;-65
2023/06/11 10:26:12;;;;;;;14.45;6.65;;;8.50;99.90;;;;;;5074293;28;20052;-67
2023/06/11 10:28:51;;;;;;;13.98;7.15;;;8.50;99.90;;;;;;5083294;28;20024;-67
2023/06/11 10:31:28;;;;;;;17.27;6.10;;;8.50;99.90;;;;;;5083570;28;20020;-66
2023/06/11 10:34:05;;;;;;;11.50;5.35;;;8.50;99.90;;;;;;5083017;28;20024;-66
2023/06/11 10:36:40;;;;;;;13.18;5.75;;;8.50;99.90;;;;;;5086081;28;20065;-66
2023/06/11 10:39:23;;;;;;;;;;;8.50;99.90;;;;;;5079539;28;20024;-66
2023/06/11 10:42:00;;;;;;;16.38;5.93;;;8.40;99.90;;;;;;5082337;28;20429;-67
2023/06/11 10:44:29;;;;;;;15.25;5.82;;;8.30;99.90;;;;;;5078476;28;20438;-66
2023/06/11 10:47:00;;;;;;;13.68;7.22;;;8.30;99.90;;;;;;5085401;28;20031;-67
2023/06/11 10:49:28;;;;;;;14.75;6.50;;;8.20;99.90;;;;;;5079761;28;20069;-66
2023/06/11 10:51:56;;;;;;;14.82;6.28;;;8.20;99.90;;;;;;5086341;28;20048;-66
2023/06/11 10:54:25;;;;;;;15.25;6.38;;;8.20;99.90;;;;;;5089336;28;20702;-66
2023/06/11 10:56:54;;;;;;;11.70;5.55;;;8.30;99.90;;;;;;5087286;28;20582;-65
2023/06/11 10:59:22;;;;;;;12.45;5.97;;;8.30;99.90;;;;;;5085017;28;20040;-67
2023/06/11 11:01:59;;;;;;;15.45;6.82;;;8.20;99.90;;;;;;5085529;28;20040;-69
2023/06/11 11:04:28;;;;;;;18.42;6.82;;;8.20;99.90;;;;;;5079792;28;20034;-66
2023/06/11 11:07:08;;;;;;;11.00;5.03;;;8.20;99.90;;;;;;5085613;28;20051;-66
2023/06/11 11:09:36;;;;;;;16.23;5.55;;;8.20;99.90;;;;;;5079685;28;20031;-67
2023/06/11 11:12:04;;;;;;;14.73;5.72;;;8.10;99.90;;;;;;5078105;28;20163;-67
2023/06/11 11:14:32;;;;;;;14.30;5.60;;;8.10;99.90;;;;;;5083895;28;20125;-66
2023/06/11 11:17:00;;;;;;;14.93;5.05;;;8.20;99.90;;;;;;5084230;28;20032;-69
2023/06/11 11:19:30;;;;;;;15.07;5.80;;;8.10;99.90;;;;;;5084675;28;20028;-69
2023/06/11 11:21:57;;;;;;;9.23;5.97;;;8.20;99.90;;;;;;5080676;28;20040;-69
2023/06/11 11:24:25;;;;;;;15.15;7.25;;;8.30;99.90;;;;;;5089076;28;20056;-68
2023/06/11 11:26:52;;;;;;;17.17;5.18;;;8.40;99.90;;;;;;5088719;28;20020;-68
2023/06/11 11:29:20;;;;;;;11.65;5.75;;;8.50;99.90;;;;;;5089410;28;20036;-69
2023/06/11 11:31:48;;;;;;;14.70;6.35;;;8.60;99.90;;;;;;5089356;28;20028;-69
2023/06/11 11:34:15;;;;;;;14.48;6.43;;;8.50;99.90;;;;;;5085418;28;20028;-68
2023/06/11 11:36:45;;;;;;;20.48;5.72;;;8.50;99.90;;;;;;5089579;28;20428;-68
2023/06/11 11:39:14;;;;;;;9.98;5.68;;;8.50;99.90;;;;;;5088075;28;20040;-67
2023/06/11 11:41:52;;;;;;;11.95;5.20;;;8.50;99.90;;;;;;5089038;28;20044;-68
2023/06/11 11:44:20;;;;;;;12.30;5.28;;;8.50;99.90;;;;;;5088811;28;20028;-69
2023/06/11 11:46:47;;;;;;;11.23;5.05;;;8.50;99.90;;;;;;5089356;28;20092;-68
2023/06/11 11:49:15;;;;;;;10.32;5.28;;;8.50;99.90;;;;;;5089302;28;20492;-68
2023/06/11 11:51:51;;;;;;;11.23;6.50;;;8.50;99.90;;;;;;5079110;28;20032;-68
2023/06/11 11:54:19;;;;;;;16.60;6.15;;;8.50;99.90;;;;;;5089229;28;20461;-68
2023/06/11 11:56:47;;;;;;;10.52;5.82;;;8.40;99.90;;;;;;5082477;28;20036;-67
2023/06/11 11:59:21;;;;;;;11.45;5.90;;;8.30;99.90;;;;;;5087563;28;20016;-68
2023/06/11 12:01:59;;;;;;;14.07;5.82;;;8.30;99.90;;;;;;5089131;28;20044;-67
2023/06/11 12:04:38;;;;;;;10.80;5.47;;;8.20;99.90;;;;;;5077140;28;20040;-69
2023/06/11 12:07:07;;;;;;;9.90;5.43;;;8.00;99.90;;;;;;5087644;28;20155;-67
2023/06/11 12:09:37;;;;;;;14.52;6.50;;;7.90;99.90;;;;;;5088481;28;20027;-68
2023/06/11 12:12:06;;;;;;;21.02;7.75;;;7.80;99.90;;;;;;5088437;28;20484;-67
2023/06/11 12:14:37;;;;;;;18.75;8.02;;;7.80;99.90;;;;;;5088111;28;20050;-67
2023/06/11 12:17:10;;;;;;;11.80;7.32;;;7.70;99.90;;;;;;5087522;28;20028;-67
2023/06/11 12:19:38;;;;;;;13.82;7.18;;;7.60;99.90;;;;;;5086600;28;20377;-68
2023/06/11 12:22:06;;;;;;;15.15;6.47;;;7.50;99.90;;;;;;5080558;28;20024;-67
2023/06/11 12:24:33;;;;;;;12.73;7.18;;;7.60;99.90;;;;;;5080704;28;20056;-66
2023/06/11 12:27:02;;;;;;;12.95;7.43;;;7.50;99.90;;;;;;5080840;28;20032;-67
2023/06/11 12:29:29;;;;;;;17.67;10.00;;;7.60;99.90;;;;;;5081949;28;20044;-67
2023/06/11 12:31:57;;;;;;;18.92;9.65;;;7.60;99.90;;;;;;5083892;28;20028;-68
2023/06/11 12:34:24;;;;;;;19.33;8.65;;;7.60;99.90;;;;;;5079950;28;20667;-67
2023/06/11 12:36:52;;;;;;;14.70;8.18;;;7.50;99.90;;;;;;5080966;28;20060;-68
2023/06/11 12:39:20;;;;;;;19.33;9.10;;;7.50;99.90;;;;;;5081065;28;20031;-68
2023/06/11 12:41:47;;;;;;;15.55;8.75;;;7.50;99.90;;;;;;5082976;28;20043;-67
2023/06/11 12:44:15;;;;;;;13.57;8.45;;;7.50;99.90;;;;;;5084127;28;20055;-67
2023/06/11 12:46:43;;;;;;;18.83;8.70;;;7.40;99.90;;;;;;5084823;28;20056;-66
2023/06/11 12:49:10;;;;;;;18.92;9.07;;;7.30;99.90;;;;;;5086738;28;20028;-67
2023/06/11 12:51:39;;;;;;;13.18;7.88;;;7.30;99.90;;;;;;5085956;28;20541;-68
2023/06/11 12:54:08;;;;;;;22.48;8.95;;;7.20;99.90;;;;;;5089156;28;20482;-68
2023/06/11 12:56:35;;;;;;;12.52;8.35;;;7.20;99.90;;;;;;5088903;28;20028;-68
2023/06/11 12:59:03;;;;;;;13.93;8.10;;;7.20;99.90;;;;;;5079088;28;20512;-68
2023/06/11 13:01:30;;;;;;;19.00;8.27;;;7.20;99.90;;;;;;5080559;28;20540;-68
2023/06/11 13:03:58;;;;;;;15.20;7.95;;;7.20;99.90;;;;;;5082915;28;20039;-68
2023/06/11 13:06:25;;;;;;;26.77;10.15;;;7.10;99.90;;;;;;5083105;28;20050;-67
2023/06/11 13:08:53;;;;;;;14.70;8.43;;;7.10;99.90;;;;;;5083849;28;20036;-68
2023/06/11 13:11:20;;;;;;;15.60;7.90;;;7.00;99.90;;;;;;5083371;28;20024;-67
2023/06/11 13:13:48;;;;;;;17.92;9.85;;;7.00;99.90;;;;;;5087505;28;20039;-67
2023/06/11 13:16:15;;;;;;;21.42;9.23;;;7.10;99.90;;;;;;5082747;28;20103;-68
2023/06/11 13:18:42;;;;;;;14.57;9.75;;;7.10;99.90;;;;;;5088387;28;20028;-68
2023/06/11 13:21:10;;;;;;;17.00;9.32;;;7.10;99.90;;;;;;5086292;28;20026;-69
2023/06/11 13:23:37;;;;;;;18.85;9.50;;;7.00;99.90;;;;;;5085937;28;20085;-67
2023/06/11 13:26:05;;;;;;;20.35;10.05;;;7.00;99.90;;;;;;5085012;28;20032;-67
2023/06/11 13:28:32;;;;;;;30.65;12.05;;;7.10;99.90;;;;;;5085902;28;20451;-67
2023/06/11 13:31:00;;;;;;;21.35;12.65;;;7.10;99.90;;;;;;5086005;28;20032;-67
2023/06/11 13:33:27;;;;;;;18.85;11.43;;;7.10;99.90;;;;;;5080858;28;20034;-68
2023/06/11 13:35:55;;;;;;;22.27;10.95;;;7.10;99.90;;;;;;5087353;28;20081;-66
2023/06/11 13:38:23;;;;;;;24.55;10.80;;;7.00;99.90;;;;;;5080671;28;20036;-67
2023/06/11 13:40:52;;;;;;;19.23;10.13;;;7.10;99.90;;;;;;5086578;28;20103;-66
2023/06/11 13:43:19;;;;;;;19.73;11.50;;;7.00;99.90;;;;;;5083621;28;20067;-67
2023/06/11 13:45:47;;;;;;;16.35;10.15;;;6.90;99.90;;;;;;5081538;28;20024;-67
2023/06/11 13:48:16;;;;;;;20.65;11.50;;;6.90;99.90;;;;;;5088873;28;20035;-66
2023/06/11 13:50:44;;;;;;;18.13;10.02;;;6.80;99.90;;;;;;5083657;28;20028;-67
2023/06/11 13:53:12;;;;;;;17.17;10.70;;;6.70;99.90;;;;;;5087372;28;20028;-67
2023/06/11 13:55:40;;;;;;;19.25;10.65;;;6.60;99.90;;;;;;5084121;28;20023;-67
2023/06/11 13:58:08;;;;;;;20.50;10.00;;;6.50;99.90;;;;;;5085420;28;20039;-68
2023/06/11 14:00:35;;;;;;;20.35;11.05;;;6.40;99.90;;;;;;5083212;28;20031;-66
2023/06/11 14:03:04;;;;;;;20.08;10.80;;;6.30;99.90;;;;;;5087984;28;20160;-68
2023/06/11 14:05:31;;;;;;;18.67;10.38;;;6.20;99.90;;;;;;5086541;28;20028;-67
2023/06/11 14:07:59;;;;;;;19.45;10.25;;;6.20;99.90;;;;;;5086587;28;20036;-68
2023/06/11 14:10:27;;;;;;;19.42;10.05;;;6.00;99.90;;;;;;5084364;28;20085;-68
2023/06/11 14:12:55;;;;;;;22.83;10.85;;;6.00;99.90;;;;;;5088234;28;20040;-67
2023/06/11 14:15:22;;;;;;;22.58;11.27;;;5.90;99.90;;;;;;5085194;28;20515;-68
2023/06/11 14:17:50;;;;;;;22.60;11.25;;;6.00;99.90;;;;;;5089643;28;20023;-67
2023/06/11 14:20:18;;;;;;;22.75;11.35;;;6.00;99.90;;;;;;5088067;28;20434;-67
2023/06/11 14:22:46;;;;;;;24.67;12.68;;;6.00;99.90;;;;;;5086234;28;20440;-67
2023/06/11 14:25:13;;;;;;;20.95;12.68;;;6.00;99.90;;;;;;5086898;28;20027;-68
2023/06/11 14:27:41;;;;;;;19.85;11.10;;;6.00;99.90;;;;;;5085676;28;20428;-67
2023/06/11 14:30:09;;;;;;;18.98;11.82;;;6.00;99.90;;;;;;5086037;28;20020;-68
2023/06/11 14:32:36;;;;;;;30.00;12.25;;;6.10;99.90;;;;;;5083437;28;20020;-67
2023/06/11 14:35:04;;;;;;;17.98;10.85;;;6.00;99.90;;;;;;5080808;28;20020;-64
2023/06/11 14:37:31;;;;;;;19.98;12.05;;;6.00;99.90;;;;;;5086623;28;20506;-68
2023/06/11 14:39:59;;;;;;;22.05;12.32;;;5.90;99.90;;;;;;5088235;28;20050;-68
2023/06/11 14:42:26;;;;;;;20.48;12.18;;;5.90;99.90;;;;;;5086007;28;20034;-68
2023/06/11 14:44:54;;;;;;;23.73;11.25;;;5.90;99.90;;;;;;5084675;28;20016;-68
2023/06/11 14:47:21;;;;;;;30.50;13.50;;;5.80;99.90;;;;;;5084320;28;20038;-68
2023/06/11 14:49:51;;;;;;;30.67;14.07;;;5.70;99.90;;;;;;5084183;28;20381;-68
2023/06/11 14:52:18;;;;;;;27.38;13.18;;;5.60;99.90;;;;;;5087160;28;20032;-68
2023/06/11 14:54:46;;;;;;;21.50;12.82;;;5.60;99.90;;;;;;5086718;28;20070;-67
2023/06/11 14:57:14;;;;;;;27.27;13.38;;;5.60;99.90;;;;;;5078712;28;20031;-67
2023/06/11 14:59:43;;;;;;;26.02;13.05;;;5.60;99.90;;;;;;5083269;28;20026;-68
2023/06/11 15:02:13;;;;;;;25.50;14.48;;;5.70;99.90;;;;;;5085624;28;20135;-68
2023/06/11 15:04:43;;;;;;;31.40;14.00;;;5.70;99.90;;;;;;5086304;28;20047;-67
2023/06/11 15:07:12;;;;;;;25.27;13.77;;;5.70;99.90;;;;;;5087405;28;20927;-67
2023/06/11 15:09:42;;;;;;;27.42;13.98;;;5.60;99.90;;;;;;5082865;28;20016;-67
2023/06/11 15:12:10;;;;;;;26.33;13.90;;;5.50;99.90;;;;;;5070532;28;20461;-67
2023/06/11 15:14:37;;;;;;;21.83;13.68;;;5.40;99.90;;;;;;5082096;28;20031;-68
2023/06/11 15:17:05;;;;;;;26.58;13.82;;;5.30;99.90;;;;;;5087285;28;20088;-66
2023/06/11 15:19:32;;;;;;;24.65;13.18;;;5.20;99.90;;;;;;5084568;28;20028;-67
2023/06/11 15:22:03;;;;;;;25.98;13.63;;;5.20;99.90;;;;;;5088829;28;20115;-68
2023/06/11 15:24:32;;;;;;;29.25;15.27;;;5.20;99.90;;;;;;5087951;28;20028;-68
2023/06/11 15:26:59;;;;;;;30.33;13.90;;;5.20;99.90;;;;;;5087908;28;20043;-68
2023/06/11 15:29:27;;;;;;;24.70;14.63;;;5.20;99.90;;;;;;5084926;28;20030;-66
2023/06/11 15:31:56;;;;;;;27.25;15.10;;;5.20;99.90;;;;;;5085250;28;20047;-67
2023/06/11 15:34:24;;;;;;;25.83;15.27;;;5.20;99.90;;;;;;5086874;28;20074;-68
2023/06/11 15:36:51;;;;;;;30.20;14.05;;;5.10;99.90;;;;;;5086429;28;20035;-67
2023/06/11 15:39:19;;;;;;;25.83;14.38;;;5.10;99.90;;;;;;5086780;28;20062;-67
2023/06/11 15:41:47;;;;;;;21.83;14.50;;;5.20;99.90;;;;;;5079485;28;20028;-68
2023/06/11 15:44:14;;;;;;;26.10;16.42;;;5.30;99.90;;;;;;5088453;28;20412;-68
2023/06/11 15:46:41;;;;;;;31.30;16.23;;;5.40;99.90;;;;;;5085874;28;20020;-68
2023/06/11 15:49:09;;;;;;;26.70;17.55;;;5.40;99.90;;;;;;5085308;28;20028;-68
2023/06/11 15:51:38;;;;;;;36.20;20.23;;;5.40;99.90;;;;;;5086852;28;20016;-69
2023/06/11 15:54:06;;;;;;;42.78;22.15;;;5.50;99.90;;;;;;5085978;28;20024;-69